createdAt,value
2022-09-07T00:01:40.079Z,2.53
2022-09-07T00:04:07.974Z,2.70
2022-09-07T00:06:34.744Z,2.33
2022-09-07T00:09:02.479Z,1.83
2022-09-07T00:13:56.135Z,2.17
2022-09-07T00:16:27.893Z,2.83
2022-09-07T00:18:57.049Z,2.95
2022-09-07T00:21:24.326Z,2.22
2022-09-07T00:23:51.940Z,1.95
2022-09-07T00:26:21.498Z,2.40
2022-09-07T00:28:48.958Z,2.25
2022-09-07T00:31:18.800Z,1.60
2022-09-07T00:33:45.952Z,1.80
2022-09-07T00:36:12.557Z,2.10
2022-09-07T00:38:39.156Z,1.88
2022-09-07T00:41:05.902Z,2.13
2022-09-07T00:43:42.076Z,2.65
2022-09-07T00:46:29.732Z,2.40
2022-09-07T00:49:19.168Z,2.03
2022-09-07T00:51:54.008Z,2.30
2022-09-07T00:54:28.388Z,2.10
2022-09-07T00:56:55.101Z,3.13
2022-09-07T00:59:26.841Z,2.60
2022-09-07T01:01:53.693Z,2.30
2022-09-07T01:04:22.250Z,2.00
2022-09-07T01:06:49.237Z,2.20
2022-09-07T01:09:19.793Z,2.20
2022-09-07T01:11:51.034Z,2.00
2022-09-07T01:14:24.960Z,1.92
2022-09-07T01:17:07.238Z,2.50
2022-09-07T01:19:42.593Z,1.85
2022-09-07T01:22:21.380Z,1.65
2022-09-07T01:25:12.605Z,1.85
2022-09-07T01:28:03.906Z,1.50
2022-09-07T01:30:35.253Z,1.30
2022-09-07T01:33:10.677Z,1.90
2022-09-07T01:35:52.521Z,1.48
2022-09-07T01:38:30.909Z,3.30
2022-09-07T01:41:06.108Z,1.50
2022-09-07T01:43:37.550Z,1.83
2022-09-07T01:46:10.537Z,2.00
2022-09-07T01:48:39.660Z,1.83
2022-09-07T01:51:06.300Z,1.80
2022-09-07T01:53:38.065Z,1.50
2022-09-07T01:56:10.007Z,1.60
2022-09-07T01:58:46.223Z,1.60
2022-09-07T02:01:15.630Z,1.63
2022-09-07T02:04:22.438Z,1.90
2022-09-07T02:06:56.114Z,1.50
2022-09-07T02:09:47.585Z,1.80
2022-09-07T02:12:50.754Z,1.85
2022-09-07T02:15:23.797Z,2.08
2022-09-07T02:17:54.388Z,2.13
2022-09-07T02:20:31.413Z,2.20
2022-09-07T02:23:02.581Z,1.77
2022-09-07T02:25:37.829Z,1.88
2022-09-07T02:28:11.371Z,1.98
2022-09-07T02:30:38.294Z,2.15
2022-09-07T02:33:05.613Z,1.92
2022-09-07T02:35:33.525Z,2.03
2022-09-07T02:38:03.529Z,2.35
2022-09-07T02:40:30.090Z,2.28
2022-09-07T02:43:02.978Z,2.88
2022-09-07T02:45:38.850Z,2.05
2022-09-07T02:48:23.188Z,2.20
2022-09-07T02:51:11.037Z,1.83
2022-09-07T02:54:02.786Z,3.70
2022-09-07T02:56:53.106Z,2.92
2022-09-07T02:59:25.681Z,2.35
2022-09-07T03:01:55.299Z,1.70
2022-09-07T03:04:54.513Z,2.05
2022-09-07T03:07:30.621Z,2.10
2022-09-07T03:09:58.458Z,2.10
2022-09-07T03:14:51.571Z,2.10
2022-09-07T03:17:18.239Z,1.98
2022-09-07T03:19:44.786Z,2.20
2022-09-07T03:22:11.301Z,2.30
2022-09-07T03:24:37.858Z,2.10
2022-09-07T03:27:04.403Z,2.63
2022-09-07T03:29:31.037Z,2.00
2022-09-07T03:31:57.806Z,2.30
2022-09-07T03:34:24.343Z,2.10
2022-09-07T03:36:50.877Z,2.08
2022-09-07T03:39:21.040Z,1.85
2022-09-07T03:41:47.890Z,2.15
2022-09-07T03:44:14.470Z,2.40
2022-09-07T03:46:41.171Z,2.42
2022-09-07T03:49:07.682Z,2.00
2022-09-07T03:51:34.254Z,2.70
2022-09-07T03:54:00.817Z,2.70
2022-09-07T03:56:27.725Z,2.70
2022-09-07T03:58:54.865Z,3.17
2022-09-07T04:01:24.447Z,2.53
2022-09-07T04:03:51.978Z,3.20
2022-09-07T04:06:19.822Z,2.53
2022-09-07T04:08:46.390Z,3.65
2022-09-07T04:11:16.226Z,4.10
2022-09-07T04:13:43.562Z,3.75
2022-09-07T04:16:22.001Z,3.83
2022-09-07T04:18:51.940Z,4.28
2022-09-07T04:21:18.850Z,4.75
2022-09-07T04:23:45.894Z,4.67
2022-09-07T04:26:18.445Z,4.80
2022-09-07T04:28:45.636Z,4.60
2022-09-07T04:31:13.901Z,4.75
2022-09-07T04:33:40.565Z,4.47
2022-09-07T04:36:07.646Z,5.00
2022-09-07T04:38:34.483Z,5.90
2022-09-07T04:41:09.531Z,10.02
2022-09-07T04:43:38.097Z,5.22
2022-09-07T04:46:19.394Z,5.05
2022-09-07T04:48:57.843Z,6.00
2022-09-07T04:51:27.229Z,5.85
2022-09-07T04:53:55.421Z,5.90
2022-09-07T04:56:23.276Z,6.43
2022-09-07T04:58:50.408Z,6.50
2022-09-07T05:01:19.706Z,6.53
2022-09-07T05:03:47.290Z,6.03
2022-09-07T05:06:14.751Z,7.20
2022-09-07T05:08:44.480Z,11.95
2022-09-07T05:11:12.254Z,10.20
2022-09-07T05:13:39.081Z,13.50
2022-09-07T05:16:09.491Z,11.40
2022-09-07T05:18:36.447Z,7.75
2022-09-07T05:21:17.312Z,7.90
2022-09-07T05:23:45.535Z,8.27
2022-09-07T05:26:12.236Z,8.85
2022-09-07T05:28:39.346Z,9.15
2022-09-07T05:36:32.538Z,8.70
2022-09-07T05:38:59.581Z,8.23
2022-09-07T05:41:27.032Z,7.83
2022-09-07T05:46:41.328Z,7.20
2022-09-07T05:49:08.213Z,6.13
2022-09-07T05:51:34.780Z,6.13
2022-09-07T05:54:01.572Z,5.75
2022-09-07T05:56:28.258Z,6.30
2022-09-07T05:58:55.162Z,6.05
2022-09-07T06:01:21.696Z,6.57
2022-09-07T06:03:48.347Z,6.75
2022-09-07T06:06:17.598Z,6.22
2022-09-07T06:08:49.337Z,5.85
2022-09-07T06:11:18.656Z,6.95
2022-09-07T06:13:45.558Z,7.22
2022-09-07T06:16:14.196Z,7.17
2022-09-07T06:18:43.277Z,7.28
2022-09-07T06:21:21.378Z,8.15
2022-09-07T06:23:49.345Z,11.40
2022-09-07T06:26:17.198Z,16.00
2022-09-07T06:28:49.190Z,17.13
2022-09-07T06:33:41.636Z,21.13
2022-09-07T06:36:13.652Z,22.05
2022-09-07T06:38:40.717Z,20.63
2022-09-07T06:44:00.899Z,20.15
2022-09-07T06:49:14.059Z,19.10
2022-09-07T06:51:40.585Z,22.25
2022-09-07T06:56:53.724Z,20.30
2022-09-07T06:59:20.381Z,19.95
2022-09-07T07:01:46.932Z,19.45
2022-09-07T07:04:14.419Z,20.60
2022-09-07T07:06:40.992Z,17.92
2022-09-07T07:09:10.721Z,17.00
2022-09-07T07:11:37.763Z,18.52
2022-09-07T07:14:04.809Z,18.48
2022-09-07T07:16:31.577Z,18.70
2022-09-07T07:18:58.384Z,17.47
2022-09-07T07:21:24.931Z,19.17
2022-09-07T07:23:53.169Z,19.33
2022-09-07T07:26:26.822Z,18.83
2022-09-07T07:29:03.879Z,20.65
2022-09-07T07:31:33.259Z,20.95
2022-09-07T07:33:59.939Z,20.65
2022-09-07T07:36:27.701Z,19.80
2022-09-07T07:44:18.768Z,19.35
2022-09-07T07:46:48.771Z,17.13
2022-09-07T07:49:15.368Z,16.80
2022-09-07T07:54:28.444Z,14.90
2022-09-07T07:56:54.876Z,12.55
2022-09-07T07:59:21.465Z,12.57
2022-09-07T08:01:48.006Z,11.55
2022-09-07T08:04:14.808Z,11.73
2022-09-07T08:06:44.382Z,5.57
2022-09-07T08:09:13.948Z,5.15
2022-09-07T08:11:40.687Z,5.65
2022-09-07T08:14:08.664Z,4.47
2022-09-07T08:16:36.355Z,4.70
2022-09-07T08:19:03.207Z,4.90
2022-09-07T08:21:29.889Z,5.20
2022-09-07T08:23:56.425Z,3.93
2022-09-07T08:26:22.948Z,3.35
2022-09-07T08:28:49.496Z,3.63
2022-09-07T08:31:17.137Z,3.58
2022-09-07T08:33:43.725Z,3.53
2022-09-07T08:36:15.538Z,3.10
2022-09-07T08:38:42.405Z,3.35
2022-09-07T08:41:46.521Z,3.30
2022-09-07T08:44:18.889Z,3.15
2022-09-07T08:46:58.670Z,3.72
2022-09-07T08:49:48.818Z,2.63
2022-09-07T08:52:21.366Z,3.65
2022-09-07T08:54:58.720Z,3.20
2022-09-07T09:00:08.458Z,3.40
2022-09-07T09:02:42.028Z,3.38
2022-09-07T09:05:40.360Z,3.15
2022-09-07T09:08:12.244Z,3.20
2022-09-07T09:11:01.960Z,2.72
2022-09-07T09:13:52.150Z,2.90
2022-09-07T09:16:32.199Z,3.10
2022-09-07T09:19:30.605Z,2.90
2022-09-07T09:22:13.796Z,3.00
2022-09-07T09:24:47.764Z,2.45
2022-09-07T09:27:14.612Z,1.90
2022-09-07T09:29:41.209Z,2.47
2022-09-07T09:32:37.731Z,3.33
2022-09-07T09:35:36.350Z,2.72
2022-09-07T09:38:03.781Z,2.53
2022-09-07T09:40:32.725Z,1.70
2022-09-07T09:43:17.438Z,1.88
2022-09-07T09:48:40.433Z,1.58
2022-09-07T09:54:06.292Z,2.10
2022-09-07T09:56:41.665Z,2.30
2022-09-07T10:05:36.072Z,2.17
2022-09-07T10:08:06.160Z,1.80
2022-09-07T10:10:32.985Z,2.67
2022-09-07T10:12:59.734Z,2.15
2022-09-07T10:15:41.250Z,2.83
2022-09-07T10:18:18.684Z,30.40
2022-09-07T10:23:22.196Z,2.58
2022-09-07T10:25:48.921Z,1.92
2022-09-07T10:28:18.365Z,2.13
2022-09-07T10:30:47.686Z,2.78
2022-09-07T10:33:24.841Z,2.97
2022-09-07T10:38:26.012Z,2.70
2022-09-07T10:41:05.853Z,1.83
2022-09-07T10:43:41.341Z,2.30
2022-09-07T10:49:40.900Z,2.28
2022-09-07T10:52:34.599Z,1.88
2022-09-07T10:55:26.413Z,1.80
2022-09-07T11:02:01.811Z,4.20
2022-09-07T11:04:49.365Z,1.30
2022-09-07T11:07:41.766Z,1.55
2022-09-07T11:10:26.273Z,1.50
2022-09-07T11:12:57.859Z,2.50
2022-09-07T11:15:38.804Z,2.17
2022-09-07T11:18:16.933Z,1.75
2022-09-07T11:20:55.466Z,2.45
2022-09-07T11:23:46.773Z,1.70
2022-09-07T11:26:20.515Z,1.80
2022-09-07T11:31:45.935Z,1.60
2022-09-07T11:34:27.560Z,1.70
2022-09-07T11:37:01.182Z,2.20
2022-09-07T11:39:54.368Z,2.97
2022-09-07T11:42:49.057Z,2.00
2022-09-07T11:45:17.555Z,3.10
2022-09-07T11:47:55.969Z,4.75
2022-09-07T11:50:23.834Z,2.85
2022-09-07T11:52:55.590Z,3.75
2022-09-07T11:55:27.388Z,4.82
2022-09-07T11:58:30.104Z,2.55
2022-09-07T12:01:11.677Z,5.97
2022-09-07T12:03:56.484Z,2.55
2022-09-07T12:06:38.534Z,3.03
2022-09-07T12:09:22.964Z,4.43
2022-09-07T12:12:08.295Z,9.05
2022-09-07T12:15:05.857Z,3.47
2022-09-07T12:17:48.009Z,3.33
2022-09-07T12:20:20.529Z,2.40
2022-09-07T12:23:05.769Z,2.80
2022-09-07T12:25:34.124Z,2.83
2022-09-07T12:28:01.192Z,2.38
2022-09-07T12:30:30.230Z,3.13
2022-09-07T12:32:58.427Z,3.47
2022-09-07T12:35:28.446Z,2.60
2022-09-07T12:37:56.612Z,2.35
2022-09-07T12:40:29.719Z,2.65
2022-09-07T12:43:14.596Z,2.17
2022-09-07T12:45:41.639Z,3.10
2022-09-07T12:48:17.074Z,3.05
2022-09-07T12:51:03.821Z,2.70
2022-09-07T12:53:46.123Z,4.05
2022-09-07T12:56:37.437Z,2.55
2022-09-07T12:59:22.237Z,2.28
2022-09-07T13:02:10.095Z,3.47
2022-09-07T13:04:37.067Z,2.10
2022-09-07T13:07:27.452Z,2.08
2022-09-07T13:09:59.454Z,2.75
2022-09-07T13:12:54.898Z,2.42
2022-09-07T13:15:45.868Z,2.20
2022-09-07T13:18:34.941Z,1.45
2022-09-07T13:21:07.652Z,2.22
2022-09-07T13:23:37.921Z,1.85
2022-09-07T13:26:08.079Z,1.65
2022-09-07T13:28:51.079Z,1.45
2022-09-07T13:31:39.222Z,1.70
2022-09-07T13:34:33.852Z,1.40
2022-09-07T13:37:22.790Z,1.40
2022-09-07T13:39:52.628Z,2.22
2022-09-07T13:42:25.193Z,1.67
2022-09-07T13:44:57.499Z,1.73
2022-09-07T13:47:42.156Z,2.00
2022-09-07T13:50:24.210Z,1.33
2022-09-07T13:53:15.234Z,1.45
2022-09-07T13:55:56.821Z,1.42
2022-09-07T13:58:33.316Z,1.27
2022-09-07T14:01:02.854Z,1.40
2022-09-07T14:03:52.012Z,1.35
2022-09-07T14:06:21.612Z,1.35
2022-09-07T14:08:50.553Z,1.30
2022-09-07T14:11:26.892Z,1.10
2022-09-07T14:14:14.508Z,1.38
2022-09-07T14:16:47.141Z,1.00
2022-09-07T14:19:31.940Z,2.25
2022-09-07T14:22:01.596Z,1.70
2022-09-07T14:24:37.009Z,1.20
2022-09-07T14:27:05.309Z,1.23
2022-09-07T14:29:34.459Z,1.20
2022-09-07T14:32:03.508Z,1.63
2022-09-07T14:34:36.321Z,1.45
2022-09-07T14:37:07.087Z,1.40
2022-09-07T14:39:38.266Z,1.13
2022-09-07T14:42:05.303Z,1.20
2022-09-07T14:47:02.830Z,1.40
2022-09-07T14:49:29.633Z,1.13
2022-09-07T14:51:56.265Z,1.02
2022-09-07T14:54:32.935Z,1.02
2022-09-07T14:57:28.283Z,1.25
2022-09-07T14:59:57.236Z,1.23
2022-09-07T15:02:36.976Z,1.63
2022-09-07T15:05:15.294Z,1.20
2022-09-07T15:07:48.689Z,1.58
2022-09-07T15:10:16.395Z,0.93
2022-09-07T15:12:44.211Z,1.05
2022-09-07T15:15:26.707Z,1.52
2022-09-07T15:18:05.883Z,1.10
2022-09-07T15:20:43.280Z,0.90
2022-09-07T15:23:16.926Z,1.00
2022-09-07T15:25:50.907Z,1.10
2022-09-07T15:34:15.747Z,1.55
2022-09-07T15:36:46.375Z,1.20
2022-09-07T15:39:18.623Z,1.10
2022-09-07T15:41:45.854Z,1.20
2022-09-07T15:44:13.864Z,1.40
2022-09-07T15:46:41.127Z,1.63
2022-09-07T15:49:08.204Z,2.03
2022-09-07T15:54:21.869Z,1.60
2022-09-07T16:02:01.996Z,2.80
2022-09-07T16:04:29.378Z,3.13
2022-09-07T16:06:56.031Z,2.47
2022-09-07T16:09:22.719Z,4.45
2022-09-07T16:11:50.640Z,2.08
2022-09-07T16:14:17.734Z,1.95
2022-09-07T16:22:01.981Z,2.15
2022-09-07T16:24:28.757Z,1.50
2022-09-07T16:26:55.325Z,1.88
2022-09-07T16:29:21.834Z,1.30
2022-09-07T16:34:35.098Z,3.38
2022-09-07T16:37:01.861Z,1.33
2022-09-07T16:39:29.203Z,1.65
2022-09-07T16:41:56.006Z,2.20
2022-09-07T16:44:22.928Z,1.80
2022-09-07T16:46:50.544Z,1.23
2022-09-07T16:49:17.756Z,1.27
2022-09-07T16:51:45.776Z,1.55
2022-09-07T16:54:14.338Z,2.13
2022-09-07T16:56:40.897Z,1.35
2022-09-07T16:59:13.538Z,1.30
2022-09-07T17:01:42.010Z,1.73
2022-09-07T17:04:11.207Z,1.73
2022-09-07T17:06:45.300Z,1.52
2022-09-07T17:09:13.404Z,1.48
2022-09-07T17:11:40.277Z,1.52
2022-09-07T17:14:07.184Z,1.50
2022-09-07T17:16:39.115Z,1.42
2022-09-07T17:21:55.520Z,2.03
2022-09-07T17:24:23.917Z,10.13
2022-09-07T17:26:50.445Z,2.97
2022-09-07T17:29:16.946Z,6.57
2022-09-07T17:34:30.581Z,2.45
2022-09-07T17:36:57.893Z,2.72
2022-09-07T17:39:24.743Z,1.73
2022-09-07T17:41:54.629Z,1.75
2022-09-07T17:44:23.402Z,3.05
2022-09-07T17:46:50.984Z,2.17
2022-09-07T17:49:17.832Z,1.48
2022-09-07T17:51:45.334Z,1.60
2022-09-07T17:58:42.793Z,3.15
2022-09-07T18:01:15.872Z,2.72
2022-09-07T18:03:43.122Z,3.08
2022-09-07T18:06:10.881Z,3.35
2022-09-07T18:08:38.007Z,3.05
2022-09-07T18:14:00.034Z,3.10
2022-09-07T18:16:28.152Z,2.25
2022-09-07T18:18:56.339Z,2.08
2022-09-07T18:21:30.763Z,2.60
2022-09-07T18:24:08.889Z,2.70
2022-09-07T18:26:39.129Z,2.83
2022-09-07T18:29:18.725Z,3.60
2022-09-07T18:31:53.926Z,2.75
2022-09-07T18:34:20.785Z,2.35
2022-09-07T18:36:47.571Z,2.33
2022-09-07T18:39:14.242Z,2.67
2022-09-07T18:41:42.200Z,2.70
2022-09-07T18:46:55.689Z,2.80
2022-09-07T18:49:22.292Z,2.43
2022-09-07T18:54:35.336Z,2.80
2022-09-07T18:57:01.959Z,2.57
2022-09-07T18:59:29.733Z,2.67
2022-09-07T19:02:03.054Z,2.70
2022-09-07T19:09:44.345Z,3.30
2022-09-07T19:12:10.874Z,4.40
2022-09-07T19:14:37.425Z,3.70
2022-09-07T19:17:04.006Z,2.55
2022-09-07T19:19:30.620Z,2.92
2022-09-07T19:21:58.302Z,3.67
2022-09-07T19:24:25.815Z,2.83
2022-09-07T19:26:55.716Z,3.60
2022-09-07T19:29:24.773Z,3.80
2022-09-07T19:32:05.326Z,3.67
2022-09-07T19:34:40.209Z,3.85
2022-09-07T19:37:08.445Z,3.38
2022-09-07T19:39:34.934Z,3.38
2022-09-07T19:42:04.147Z,45.17
2022-09-07T19:44:31.481Z,3.08
2022-09-07T19:46:58.185Z,3.47
2022-09-07T19:49:24.723Z,3.80
2022-09-07T19:51:52.088Z,2.95
2022-09-07T19:56:45.162Z,4.03
2022-09-07T19:59:11.980Z,4.57
2022-09-07T20:01:40.139Z,5.03
2022-09-07T20:04:10.558Z,4.68
2022-09-07T20:06:39.462Z,4.03
2022-09-07T20:09:07.068Z,4.15
2022-09-07T20:14:01.627Z,3.92
2022-09-07T20:16:28.321Z,3.40
2022-09-07T20:18:54.841Z,3.77
2022-09-07T20:21:23.594Z,3.47
2022-09-07T20:23:51.024Z,3.60
2022-09-07T20:26:19.937Z,3.95
2022-09-07T20:28:46.919Z,4.70
2022-09-07T20:31:15.927Z,4.25
2022-09-07T20:33:43.977Z,3.78
2022-09-07T20:36:16.013Z,4.07
2022-09-07T20:38:43.582Z,3.55
2022-09-07T20:43:39.796Z,3.72
2022-09-07T20:46:06.560Z,3.83
2022-09-07T20:48:34.014Z,3.03
2022-09-07T20:51:01.420Z,3.50
2022-09-07T20:53:27.991Z,3.70
2022-09-07T20:56:00.115Z,4.10
2022-09-07T20:58:26.641Z,3.90
2022-09-07T21:00:53.351Z,4.30
2022-09-07T21:03:19.930Z,3.73
2022-09-07T21:05:46.447Z,3.70
2022-09-07T21:08:13.607Z,4.00
2022-09-07T21:10:41.502Z,3.90
2022-09-07T21:13:08.416Z,3.92
2022-09-07T21:15:42.607Z,4.00
2022-09-07T21:18:14.313Z,4.05
2022-09-07T21:20:41.018Z,4.00
2022-09-07T21:23:07.619Z,3.30
2022-09-07T21:25:34.112Z,3.42
2022-09-07T21:28:00.637Z,3.33
2022-09-07T21:30:27.175Z,3.65
2022-09-07T21:32:53.623Z,3.38
2022-09-07T21:35:20.516Z,2.88
2022-09-07T21:37:47.004Z,2.80
2022-09-07T21:40:13.654Z,2.72
2022-09-07T21:42:40.704Z,3.20
2022-09-07T21:45:09.135Z,2.70
2022-09-07T21:47:35.641Z,2.60
2022-09-07T21:50:02.455Z,3.25
2022-09-07T21:52:28.940Z,2.83
2022-09-07T21:54:55.459Z,2.80
2022-09-07T21:57:21.905Z,3.10
2022-09-07T21:59:48.454Z,2.80
2022-09-07T22:02:15.074Z,2.55
2022-09-07T22:04:41.685Z,2.42
2022-09-07T22:07:08.198Z,2.75
2022-09-07T22:09:34.689Z,2.47
2022-09-07T22:12:01.286Z,2.28
2022-09-07T22:14:27.863Z,2.33
2022-09-07T22:16:54.371Z,2.20
2022-09-07T22:19:20.962Z,2.45
2022-09-07T22:21:47.434Z,2.20
2022-09-07T22:24:15.263Z,2.38
2022-09-07T22:26:41.916Z,1.98
2022-09-07T22:29:11.636Z,2.10
2022-09-07T22:31:39.267Z,2.40
2022-09-07T22:34:10.566Z,1.90
2022-09-07T22:36:43.227Z,2.20
2022-09-07T22:39:15.584Z,2.22
2022-09-07T22:41:42.774Z,2.00
2022-09-07T22:44:15.452Z,2.13
2022-09-07T22:46:43.738Z,2.20
2022-09-07T22:49:12.619Z,2.20
2022-09-07T22:51:39.352Z,1.77
2022-09-07T22:54:06.423Z,2.10
2022-09-07T22:56:34.146Z,1.80
2022-09-07T22:59:03.810Z,1.73
2022-09-07T23:01:31.847Z,1.98
2022-09-07T23:03:58.688Z,2.05
2022-09-07T23:06:34.193Z,1.87
2022-09-07T23:09:04.356Z,1.85
2022-09-07T23:11:30.948Z,2.10
2022-09-07T23:13:59.307Z,2.13
2022-09-07T23:16:27.749Z,1.80
2022-09-07T23:18:55.496Z,1.75
2022-09-07T23:21:22.140Z,2.15
2022-09-07T23:23:52.790Z,1.90
2022-09-07T23:26:21.682Z,1.85
2022-09-07T23:28:56.588Z,1.95
2022-09-07T23:31:23.973Z,2.38
2022-09-07T23:33:51.140Z,1.80
2022-09-07T23:36:18.788Z,2.00
2022-09-07T23:41:14.231Z,2.05
2022-09-07T23:43:41.180Z,2.20
2022-09-07T23:46:07.956Z,2.40
2022-09-07T23:48:34.455Z,2.77
2022-09-07T23:51:00.967Z,1.92
2022-09-07T23:53:27.488Z,2.20
2022-09-07T23:55:54.194Z,1.90
